createdAt,value
2023-03-14T00:00:38.513Z,3.80
2023-03-14T00:03:11.625Z,4.88
2023-03-14T00:05:43.133Z,5.00
2023-03-14T00:08:14.708Z,5.07
2023-03-14T00:10:46.143Z,4.63
2023-03-14T00:13:17.617Z,4.40
2023-03-14T00:15:48.972Z,4.82
2023-03-14T00:18:22.909Z,4.50
2023-03-14T00:20:54.144Z,4.20
2023-03-14T00:23:25.400Z,5.68
2023-03-14T00:25:56.878Z,4.97
2023-03-14T00:28:28.294Z,4.07
2023-03-14T00:31:01.296Z,4.78
2023-03-14T00:33:34.516Z,3.95
2023-03-14T00:36:07.490Z,4.72
2023-03-14T00:38:39.495Z,4.60
2023-03-14T00:41:12.850Z,5.20
2023-03-14T00:43:44.586Z,4.28
2023-03-14T00:46:16.268Z,4.50
2023-03-14T00:48:50.828Z,4.80
2023-03-14T00:51:22.192Z,4.53
2023-03-14T00:53:56.148Z,5.22
2023-03-14T00:56:27.669Z,4.85
2023-03-14T00:58:59.615Z,4.20
2023-03-14T01:01:31.206Z,4.95
2023-03-14T01:04:04.177Z,4.80
2023-03-14T01:06:35.541Z,4.95
2023-03-14T01:09:07.387Z,5.05
2023-03-14T01:11:40.636Z,5.03
2023-03-14T01:14:12.248Z,4.75
2023-03-14T01:16:44.116Z,5.25
2023-03-14T01:19:17.748Z,4.72
2023-03-14T01:21:49.144Z,5.05
2023-03-14T01:24:20.858Z,5.15
2023-03-14T01:26:52.572Z,4.82
2023-03-14T01:29:24.959Z,4.40
2023-03-14T01:31:57.487Z,5.22
2023-03-14T01:34:30.774Z,4.78
2023-03-14T01:37:02.872Z,4.90
2023-03-14T01:39:34.341Z,5.05
2023-03-14T01:42:06.329Z,4.85
2023-03-14T01:44:56.693Z,5.15
2023-03-14T01:47:29.077Z,5.45
2023-03-14T01:50:06.074Z,4.78
2023-03-14T01:52:44.050Z,5.10
2023-03-14T01:55:20.201Z,4.75
2023-03-14T01:57:57.335Z,5.10
2023-03-14T02:00:29.956Z,4.70
2023-03-14T02:03:06.483Z,4.80
2023-03-14T02:05:42.948Z,5.32
2023-03-14T02:08:17.934Z,3.78
2023-03-14T02:10:51.651Z,3.83
2023-03-14T02:13:24.831Z,4.22
2023-03-14T02:15:56.991Z,4.40
2023-03-14T02:18:29.812Z,4.38
2023-03-14T02:21:09.161Z,4.60
2023-03-14T02:23:48.275Z,4.40
2023-03-14T02:26:25.208Z,4.28
2023-03-14T02:28:58.777Z,3.88
2023-03-14T02:31:30.891Z,4.72
2023-03-14T02:34:04.264Z,5.32
2023-03-14T02:36:36.266Z,4.82
2023-03-14T02:39:16.353Z,5.00
2023-03-14T02:41:51.470Z,4.53
2023-03-14T02:44:24.842Z,4.03
2023-03-14T02:46:56.618Z,4.70
2023-03-14T02:49:31.275Z,3.80
2023-03-14T02:52:02.640Z,4.45
2023-03-14T02:54:34.320Z,4.22
2023-03-14T02:57:07.121Z,4.05
2023-03-14T02:59:40.552Z,4.13
2023-03-14T03:02:12.046Z,3.97
2023-03-14T03:04:43.858Z,3.83
2023-03-14T03:07:15.648Z,4.00
2023-03-14T03:09:48.221Z,3.88
2023-03-14T03:12:19.987Z,4.07
2023-03-14T03:14:53.141Z,4.00
2023-03-14T03:17:24.755Z,3.63
2023-03-14T03:19:56.087Z,4.38
2023-03-14T03:22:28.023Z,3.88
2023-03-14T03:24:59.489Z,3.83
2023-03-14T03:27:30.881Z,4.10
2023-03-14T03:30:04.280Z,3.67
2023-03-14T03:32:36.006Z,4.35
2023-03-14T03:35:08.096Z,4.25
2023-03-14T03:37:40.545Z,3.70
2023-03-14T03:40:13.776Z,3.58
2023-03-14T03:42:45.501Z,3.85
2023-03-14T03:45:19.105Z,3.42
2023-03-14T03:47:51.036Z,4.22
2023-03-14T03:50:23.630Z,3.95
2023-03-14T03:52:55.502Z,3.75
2023-03-14T03:55:27.963Z,4.55
2023-03-14T03:57:59.696Z,4.28
2023-03-14T04:00:33.813Z,3.72
2023-03-14T04:03:05.065Z,3.72
2023-03-14T04:05:36.678Z,3.75
2023-03-14T04:08:09.080Z,4.10
2023-03-14T04:10:40.910Z,4.07
2023-03-14T04:13:12.850Z,4.50
2023-03-14T04:15:46.181Z,3.78
2023-03-14T04:18:17.763Z,4.10
2023-03-14T04:20:49.754Z,4.15
2023-03-14T04:23:21.421Z,3.88
2023-03-14T04:25:53.664Z,4.35
2023-03-14T04:28:25.339Z,4.63
2023-03-14T04:30:58.563Z,3.75
2023-03-14T04:33:29.862Z,3.88
2023-03-14T04:36:01.436Z,3.67
2023-03-14T04:38:32.956Z,3.78
2023-03-14T04:41:04.663Z,4.40
2023-03-14T04:43:36.646Z,3.55
2023-03-14T04:46:10.516Z,4.65
2023-03-14T04:48:42.220Z,4.40
2023-03-14T04:51:13.831Z,3.45
2023-03-14T04:53:45.269Z,4.15
2023-03-14T04:56:16.758Z,3.72
2023-03-14T04:58:48.141Z,4.90
2023-03-14T05:01:21.440Z,3.85
2023-03-14T05:03:52.902Z,3.95
2023-03-14T05:06:24.503Z,4.18
2023-03-14T05:08:56.253Z,4.20
2023-03-14T05:11:27.757Z,3.75
2023-03-14T05:13:59.587Z,3.78
2023-03-14T05:16:33.449Z,3.90
2023-03-14T05:19:05.214Z,3.75
2023-03-14T05:21:37.218Z,3.90
2023-03-14T05:24:09.994Z,4.05
2023-03-14T05:26:41.504Z,3.83
2023-03-14T05:29:13.026Z,4.50
2023-03-14T05:31:46.459Z,4.57
2023-03-14T05:34:18.065Z,4.70
2023-03-14T05:36:49.862Z,3.70
2023-03-14T05:39:21.283Z,3.70
2023-03-14T05:41:53.320Z,4.57
2023-03-14T05:44:25.200Z,4.57
2023-03-14T05:46:58.688Z,3.72
2023-03-14T05:49:30.451Z,4.10
2023-03-14T05:52:01.983Z,3.75
2023-03-14T05:54:33.553Z,3.92
2023-03-14T05:57:05.046Z,4.22
2023-03-14T05:59:36.436Z,3.58
2023-03-14T06:02:09.346Z,4.00
2023-03-14T06:04:41.082Z,4.30
2023-03-14T06:07:12.801Z,3.90
2023-03-14T06:09:44.124Z,4.53
2023-03-14T06:12:15.547Z,4.63
2023-03-14T06:14:46.865Z,4.00
2023-03-14T06:17:20.267Z,4.32
2023-03-14T06:19:51.785Z,4.70
2023-03-14T06:22:23.774Z,4.50
2023-03-14T06:24:55.190Z,3.90
2023-03-14T06:27:27.330Z,4.28
2023-03-14T06:29:59.497Z,4.07
2023-03-14T06:32:33.280Z,4.57
2023-03-14T06:35:04.840Z,4.32
2023-03-14T06:37:36.654Z,4.70
2023-03-14T06:40:10.991Z,4.93
2023-03-14T06:42:42.439Z,5.00
2023-03-14T06:45:14.468Z,5.53
2023-03-14T06:47:50.562Z,5.78
2023-03-14T06:50:22.068Z,5.43
2023-03-14T06:52:53.728Z,5.38
2023-03-14T06:55:25.019Z,4.95
2023-03-14T06:57:56.556Z,5.43
2023-03-14T07:00:38.982Z,6.05
2023-03-14T07:03:13.344Z,6.50
2023-03-14T07:05:44.037Z,5.95
2023-03-14T07:08:14.523Z,5.50
2023-03-14T07:10:45.393Z,5.45
2023-03-14T07:13:16.035Z,5.88
2023-03-14T07:15:46.504Z,6.18
2023-03-14T07:18:18.646Z,5.38
2023-03-14T07:20:51.442Z,5.63
2023-03-14T07:23:22.136Z,5.47
2023-03-14T07:25:52.620Z,5.90
2023-03-14T07:28:24.939Z,6.05
2023-03-14T07:30:55.535Z,6.22
2023-03-14T07:33:27.733Z,5.97
2023-03-14T07:35:58.496Z,5.55
2023-03-14T07:38:29.042Z,6.32
2023-03-14T07:41:03.557Z,6.07
2023-03-14T07:43:34.313Z,5.80
2023-03-14T07:46:04.910Z,5.72
2023-03-14T07:48:37.090Z,5.90
2023-03-14T07:51:07.864Z,5.45
2023-03-14T07:53:38.705Z,6.22
2023-03-14T07:56:10.647Z,5.60
2023-03-14T07:58:41.049Z,6.05
2023-03-14T08:01:12.686Z,6.93
2023-03-14T08:03:47.726Z,6.28
2023-03-14T08:06:21.736Z,5.55
2023-03-14T08:08:54.084Z,6.35
2023-03-14T08:11:27.896Z,6.18
2023-03-14T08:13:58.793Z,5.95
2023-03-14T08:16:29.567Z,6.15
2023-03-14T08:19:01.744Z,6.15
2023-03-14T08:21:32.345Z,6.63
2023-03-14T08:24:03.120Z,6.38
2023-03-14T08:26:33.695Z,6.38
2023-03-14T08:29:08.963Z,6.05
2023-03-14T08:31:40.182Z,6.28
2023-03-14T08:34:12.373Z,6.95
2023-03-14T08:36:42.950Z,5.80
2023-03-14T08:39:15.353Z,6.47
2023-03-14T08:41:46.345Z,5.97
2023-03-14T08:44:20.911Z,6.72
2023-03-14T08:46:53.973Z,6.75
2023-03-14T08:49:26.248Z,7.43
2023-03-14T08:51:56.768Z,7.82
2023-03-14T08:54:27.264Z,11.50
2023-03-14T08:56:57.780Z,11.02
2023-03-14T08:59:28.591Z,8.23
2023-03-14T09:01:59.209Z,7.80
2023-03-14T09:04:31.383Z,7.78
2023-03-14T09:07:05.153Z,8.30
2023-03-14T09:09:35.880Z,12.80
2023-03-14T09:12:08.828Z,12.38
2023-03-14T09:14:43.621Z,10.93
2023-03-14T09:17:17.100Z,8.50
2023-03-14T09:19:49.289Z,9.10
2023-03-14T09:22:22.443Z,11.85
2023-03-14T09:24:53.530Z,10.30
2023-03-14T09:27:24.238Z,10.20
2023-03-14T09:30:00.410Z,9.52
2023-03-14T09:32:31.018Z,8.57
2023-03-14T09:35:03.696Z,8.02
2023-03-14T09:37:36.994Z,8.15
2023-03-14T09:40:13.312Z,7.95
2023-03-14T09:42:47.110Z,9.00
2023-03-14T09:45:23.677Z,9.38
2023-03-14T09:47:59.827Z,8.93
2023-03-14T09:50:42.363Z,8.25
2023-03-14T09:53:22.933Z,8.02
2023-03-14T09:55:55.241Z,9.25
2023-03-14T09:58:27.741Z,9.68
2023-03-14T10:01:03.569Z,10.35
2023-03-14T10:03:37.800Z,10.63
2023-03-14T10:06:19.471Z,9.98
2023-03-14T10:08:50.095Z,11.80
2023-03-14T10:11:21.530Z,11.25
2023-03-14T10:13:54.321Z,11.18
2023-03-14T10:16:33.505Z,11.93
2023-03-14T10:19:13.480Z,10.80
2023-03-14T10:21:46.973Z,9.50
2023-03-14T10:24:26.237Z,9.02
2023-03-14T10:27:03.290Z,10.32
2023-03-14T10:29:37.659Z,8.27
2023-03-14T10:32:11.211Z,8.40
2023-03-14T10:34:45.175Z,8.50
2023-03-14T10:37:27.675Z,9.02
2023-03-14T10:40:08.352Z,7.82
2023-03-14T10:42:46.444Z,7.55
2023-03-14T10:45:34.671Z,7.28
2023-03-14T10:48:22.311Z,7.38
2023-03-14T10:51:05.802Z,7.43
2023-03-14T10:53:50.077Z,7.70
2023-03-14T10:56:32.351Z,7.65
2023-03-14T10:59:03.342Z,7.47
2023-03-14T11:02:38.130Z,7.22
2023-03-14T11:05:23.306Z,7.45
2023-03-14T11:07:57.736Z,7.70
2023-03-14T11:10:36.176Z,7.22
2023-03-14T11:16:28.705Z,8.10
2023-03-14T11:19:15.371Z,8.32
2023-03-14T11:21:56.635Z,7.65
2023-03-14T11:24:49.307Z,8.25
2023-03-14T11:27:32.289Z,7.05
2023-03-14T11:30:20.882Z,7.80
2023-03-14T11:33:05.654Z,6.40
2023-03-14T11:35:41.759Z,6.50
2023-03-14T11:38:19.774Z,6.57
2023-03-14T11:41:25.817Z,7.28
2023-03-14T11:44:00.513Z,7.45
2023-03-14T11:46:37.637Z,6.68
2023-03-14T11:49:24.121Z,7.78
2023-03-14T11:52:03.658Z,6.35
2023-03-14T11:54:49.033Z,6.85
2023-03-14T11:57:20.673Z,7.15
2023-03-14T11:59:59.843Z,6.78
2023-03-14T12:02:57.343Z,6.93
2023-03-14T12:05:42.741Z,6.20
2023-03-14T12:08:48.201Z,6.63
2023-03-14T12:11:26.462Z,6.90
2023-03-14T12:14:02.123Z,6.40
2023-03-14T12:16:43.979Z,6.55
2023-03-14T12:19:36.546Z,6.05
2023-03-14T12:22:32.373Z,6.90
2023-03-14T12:25:09.482Z,5.90
2023-03-14T12:28:15.970Z,6.75
2023-03-14T12:30:48.721Z,12.45
2023-03-14T12:33:40.164Z,7.78
2023-03-14T12:36:56.582Z,7.00
2023-03-14T12:39:43.467Z,9.07
2023-03-14T12:42:19.602Z,14.60
2023-03-14T12:44:57.574Z,10.95
2023-03-14T12:48:03.173Z,9.95
2023-03-14T12:50:44.646Z,9.02
2023-03-14T12:54:04.162Z,9.35
2023-03-14T12:57:09.919Z,7.57
2023-03-14T12:59:50.878Z,19.52
2023-03-14T13:02:42.998Z,16.70
2023-03-14T13:05:34.099Z,9.93
2023-03-14T13:08:23.960Z,9.27
2023-03-14T13:11:06.720Z,8.43
2023-03-14T13:13:41.166Z,6.80
2023-03-14T13:16:19.400Z,6.85
2023-03-14T13:19:03.352Z,6.90
2023-03-14T13:21:41.100Z,5.65
2023-03-14T13:24:28.626Z,6.22
2023-03-14T13:27:25.243Z,5.82
2023-03-14T13:29:58.567Z,5.90
2023-03-14T13:32:34.881Z,6.10
2023-03-14T13:35:06.360Z,6.18
2023-03-14T13:37:44.327Z,5.70
2023-03-14T13:40:31.852Z,7.53
2023-03-14T13:43:17.314Z,8.57
2023-03-14T13:45:57.657Z,6.20
2023-03-14T13:48:34.978Z,8.60
2023-03-14T13:51:13.424Z,11.52
2023-03-14T13:53:48.908Z,13.50
2023-03-14T13:56:30.277Z,11.93
2023-03-14T13:59:02.912Z,14.35
2023-03-14T14:01:42.571Z,15.98
2023-03-14T14:04:24.897Z,14.60
2023-03-14T14:07:01.140Z,15.50
2023-03-14T14:09:34.391Z,14.13
2023-03-14T14:12:17.384Z,13.60
2023-03-14T14:14:57.156Z,14.00
2023-03-14T14:17:39.870Z,13.20
2023-03-14T14:20:26.789Z,13.15
2023-03-14T14:23:13.236Z,12.40
2023-03-14T14:26:09.095Z,13.52
2023-03-14T14:28:43.612Z,14.95
2023-03-14T14:31:30.856Z,13.10
2023-03-14T14:34:31.835Z,14.20
2023-03-14T14:37:07.025Z,14.35
2023-03-14T14:39:38.050Z,14.55
2023-03-14T14:42:19.456Z,13.10
2023-03-14T14:44:55.041Z,13.65
2023-03-14T14:47:31.937Z,14.65
2023-03-14T14:50:13.284Z,13.35
2023-03-14T14:52:46.693Z,14.20
2023-03-14T14:55:23.706Z,13.85
2023-03-14T14:58:26.878Z,13.63
2023-03-14T15:01:02.604Z,13.90
2023-03-14T15:03:44.715Z,13.07
2023-03-14T15:06:19.208Z,13.52
2023-03-14T15:08:51.870Z,12.32
2023-03-14T15:11:24.537Z,11.77
2023-03-14T15:13:55.650Z,11.40
2023-03-14T15:16:32.449Z,11.85
2023-03-14T15:19:21.448Z,11.88
2023-03-14T15:21:54.997Z,11.23
2023-03-14T15:24:26.564Z,12.00
2023-03-14T15:26:57.163Z,11.93
2023-03-14T15:29:29.522Z,11.82
2023-03-14T15:32:05.718Z,13.30
2023-03-14T15:34:39.518Z,13.20
2023-03-14T15:37:18.262Z,12.23
2023-03-14T15:39:51.802Z,11.40
2023-03-14T15:42:22.379Z,11.88
2023-03-14T15:44:52.877Z,12.38
2023-03-14T15:47:27.373Z,12.07
2023-03-14T15:50:00.623Z,12.77
2023-03-14T15:52:38.724Z,12.90
2023-03-14T15:55:09.943Z,11.15
2023-03-14T15:57:40.745Z,12.65
2023-03-14T16:00:16.607Z,13.60
2023-03-14T16:02:49.586Z,12.68
2023-03-14T16:05:22.006Z,11.98
2023-03-14T16:07:52.671Z,11.43
2023-03-14T16:10:23.367Z,12.10
2023-03-14T16:12:54.660Z,10.80
2023-03-14T16:15:25.314Z,11.10
2023-03-14T16:18:15.293Z,11.35
2023-03-14T16:20:56.978Z,11.55
2023-03-14T16:23:28.539Z,11.52
2023-03-14T16:26:03.471Z,11.35
2023-03-14T16:28:36.774Z,11.27
2023-03-14T16:31:09.325Z,12.80
2023-03-14T16:33:42.303Z,11.98
2023-03-14T16:36:16.562Z,12.35
2023-03-14T16:38:47.942Z,12.93
2023-03-14T16:41:19.681Z,12.30
2023-03-14T16:43:57.922Z,11.70
2023-03-14T16:46:29.706Z,13.63
2023-03-14T16:49:02.803Z,14.13
2023-03-14T16:51:33.362Z,12.70
2023-03-14T16:54:07.537Z,14.00
2023-03-14T16:56:41.869Z,13.73
2023-03-14T16:59:18.121Z,13.70
2023-03-14T17:01:48.940Z,13.40
2023-03-14T17:04:29.055Z,13.68
2023-03-14T17:09:36.292Z,12.77
2023-03-14T17:12:11.783Z,13.15
2023-03-14T17:14:43.117Z,12.30
2023-03-14T17:17:21.338Z,9.18
2023-03-14T17:19:56.325Z,9.20
2023-03-14T17:22:32.885Z,10.02
2023-03-14T17:25:07.261Z,9.00
2023-03-14T17:27:48.773Z,8.80
2023-03-14T17:30:23.026Z,8.68
2023-03-14T17:32:57.459Z,8.13
2023-03-14T17:35:38.835Z,6.55
2023-03-14T17:38:11.995Z,7.78
2023-03-14T17:40:47.847Z,6.85
2023-03-14T17:43:18.453Z,7.72
2023-03-14T17:45:50.829Z,6.97
2023-03-14T17:48:21.356Z,8.68
2023-03-14T17:50:57.983Z,7.60
2023-03-14T17:53:30.316Z,9.65
2023-03-14T17:56:01.166Z,12.20
2023-03-14T17:58:31.788Z,12.25
2023-03-14T18:01:12.211Z,12.38
2023-03-14T18:03:48.432Z,13.52
2023-03-14T18:06:22.949Z,13.20
2023-03-14T18:08:55.812Z,13.07
2023-03-14T18:11:26.915Z,15.18
2023-03-14T18:13:57.524Z,14.43
2023-03-14T18:16:28.162Z,14.90
2023-03-14T18:19:01.025Z,14.27
2023-03-14T18:21:33.408Z,14.70
2023-03-14T18:24:06.304Z,14.50
2023-03-14T18:26:39.698Z,13.88
2023-03-14T18:29:15.152Z,13.07
2023-03-14T18:31:49.545Z,14.25
2023-03-14T18:34:20.440Z,13.35
2023-03-14T18:36:52.644Z,13.82
2023-03-14T18:39:50.155Z,13.45
2023-03-14T18:42:40.472Z,13.90
2023-03-14T18:45:15.214Z,13.82
2023-03-14T18:47:48.943Z,12.95
2023-03-14T18:50:20.518Z,13.45
2023-03-14T18:53:09.037Z,12.57
2023-03-14T18:55:42.488Z,14.00
2023-03-14T18:58:24.970Z,13.15
2023-03-14T19:03:56.131Z,12.88
2023-03-14T19:06:29.968Z,15.32
2023-03-14T19:09:26.731Z,14.70
2023-03-14T19:12:01.401Z,14.57
2023-03-14T19:14:31.953Z,14.95
2023-03-14T19:17:04.626Z,15.02
2023-03-14T19:19:35.258Z,13.60
2023-03-14T19:22:09.288Z,13.82
2023-03-14T19:24:41.654Z,14.25
2023-03-14T19:27:12.192Z,12.52
2023-03-14T19:29:43.156Z,12.05
2023-03-14T19:32:14.420Z,13.45
2023-03-14T19:34:45.203Z,11.90
2023-03-14T19:37:18.440Z,13.05
2023-03-14T19:39:52.601Z,13.75
2023-03-14T19:42:23.506Z,12.75
2023-03-14T19:44:54.379Z,13.00
2023-03-14T19:47:25.201Z,13.98
2023-03-14T19:49:55.838Z,12.82
2023-03-14T19:52:28.301Z,13.27
2023-03-14T19:55:06.350Z,12.98
2023-03-14T19:57:37.445Z,13.90
2023-03-14T20:00:29.976Z,14.15
2023-03-14T20:03:00.568Z,14.25
2023-03-14T20:05:31.117Z,14.57
2023-03-14T20:08:01.613Z,13.35
2023-03-14T20:10:34.458Z,14.75
2023-03-14T20:13:15.646Z,13.98
2023-03-14T20:15:51.553Z,13.80
2023-03-14T20:18:23.962Z,14.13
2023-03-14T20:20:54.541Z,13.70
2023-03-14T20:23:25.122Z,13.65
2023-03-14T20:26:03.121Z,14.68
2023-03-14T20:28:34.084Z,12.63
2023-03-14T20:31:04.727Z,10.68
2023-03-14T20:33:35.439Z,11.95
2023-03-14T20:36:06.265Z,11.55
2023-03-14T20:38:37.573Z,13.23
2023-03-14T20:41:11.572Z,13.05
2023-03-14T20:43:42.078Z,12.95
2023-03-14T20:46:18.078Z,13.02
2023-03-14T20:48:48.624Z,13.25
2023-03-14T20:51:19.176Z,14.32
2023-03-14T20:53:49.964Z,14.98
2023-03-14T20:56:22.122Z,12.77
2023-03-14T20:58:52.678Z,13.95
2023-03-14T21:01:23.775Z,13.57
2023-03-14T21:03:54.336Z,13.23
2023-03-14T21:06:24.915Z,12.07
2023-03-14T21:08:55.382Z,11.23
2023-03-14T21:11:27.676Z,10.20
2023-03-14T21:13:58.296Z,10.13
2023-03-14T21:16:28.986Z,9.73
2023-03-14T21:18:59.623Z,9.32
2023-03-14T21:21:30.163Z,9.25
2023-03-14T21:24:02.169Z,8.65
2023-03-14T21:26:34.534Z,8.57
2023-03-14T21:29:05.453Z,8.80
2023-03-14T21:31:36.085Z,8.80
2023-03-14T21:34:06.625Z,9.57
2023-03-14T21:36:37.943Z,9.93
2023-03-14T21:39:08.519Z,9.60
2023-03-14T21:41:40.740Z,13.15
2023-03-14T21:44:12.233Z,10.52
2023-03-14T21:46:42.983Z,9.68
2023-03-14T21:49:13.588Z,8.82
2023-03-14T21:51:46.834Z,8.57
2023-03-14T21:54:18.823Z,10.05
2023-03-14T21:56:51.071Z,9.25
2023-03-14T21:59:24.924Z,9.50
2023-03-14T22:01:56.949Z,8.75
2023-03-14T22:04:35.407Z,11.30
2023-03-14T22:07:06.491Z,12.95
2023-03-14T22:09:37.780Z,11.55
2023-03-14T22:12:10.714Z,10.20
2023-03-14T22:14:41.314Z,10.20
2023-03-14T22:17:12.279Z,10.55
2023-03-14T22:19:43.179Z,10.25
2023-03-14T22:22:13.855Z,10.63
2023-03-14T22:24:44.509Z,10.45
2023-03-14T22:27:17.070Z,9.93
2023-03-14T22:29:47.863Z,8.70
2023-03-14T22:32:18.361Z,9.18
2023-03-14T22:34:49.820Z,9.90
2023-03-14T22:37:23.987Z,9.45
2023-03-14T22:40:00.272Z,7.85
2023-03-14T22:42:39.269Z,7.90
2023-03-14T22:45:15.371Z,8.40
2023-03-14T22:47:50.934Z,9.85
2023-03-14T22:50:23.592Z,7.63
2023-03-14T22:53:00.023Z,8.68
2023-03-14T22:55:32.922Z,8.73
2023-03-14T22:58:08.880Z,12.02
2023-03-14T23:00:41.175Z,9.82
2023-03-14T23:03:12.815Z,10.07
2023-03-14T23:05:44.676Z,11.32
2023-03-14T23:08:28.186Z,10.00
2023-03-14T23:11:11.035Z,10.88
2023-03-14T23:13:47.367Z,11.00
2023-03-14T23:16:25.196Z,11.27
2023-03-14T23:19:11.599Z,13.20
2023-03-14T23:21:50.153Z,13.98
2023-03-14T23:24:27.721Z,13.05
2023-03-14T23:27:11.340Z,11.07
2023-03-14T23:29:45.724Z,12.77
2023-03-14T23:32:18.222Z,11.57
2023-03-14T23:34:50.432Z,13.15
2023-03-14T23:37:25.845Z,12.45
2023-03-14T23:39:57.918Z,11.30
2023-03-14T23:42:30.463Z,11.63
2023-03-14T23:45:04.263Z,13.02
2023-03-14T23:47:36.348Z,11.88
2023-03-14T23:50:09.125Z,13.63
2023-03-14T23:52:43.057Z,12.95
2023-03-14T23:55:15.574Z,13.65
2023-03-14T23:57:47.564Z,12.70
